Time;durP1;ratioP1;P1;durP2;ratioP2;P2;SDS_P1;SDS_P2;PMS_P1;PMS_P2;Temp;Humidity;BMP_temperature;BMP_pressure;BME280_temperature;BME280_humidity;BME280_pressure;Samples;Min_cycle;Max_cycle;Signal;HPM_P1;HPM_P2
2021/01/15 00:11:11;;;;;;;10.83;8.30;;;5.70;57.50;;;;;;4610773;30;20484;-85
2021/01/15 00:14:35;;;;;;;;;;;;;;;;;;;;;
2021/01/15 00:24:42;;;;;;;9.97;7.00;;;5.40;58.10;;;;;;4698727;30;20556;-85
2021/01/15 00:27:10;;;;;;;8.97;7.63;;;5.50;58.10;;;;;;4751926;30;20527;-83
2021/01/15 00:49:25;;;;;;;8.97;6.37;;;5.60;57.80;;;;;;4775568;29;20923;-85
2021/01/15 00:51:53;;;;;;;10.13;6.73;;;5.50;57.50;;;;;;4793950;29;20536;-84
2021/01/15 00:54:22;;;;;;;5.83;5.33;;;5.50;57.50;;;;;;4867346;29;20456;-83
2021/01/15 00:56:57;;;;;;;8.57;5.20;;;5.50;57.70;;;;;;4881054;29;20525;-84
2021/01/15 00:59:25;;;;;;;12.00;6.17;;;5.60;57.90;;;;;;4862392;29;20848;-84
2021/01/15 01:01:58;;;;;;;5.10;4.70;;;5.70;57.90;;;;;;4867919;29;20458;-83
2021/01/15 01:04:26;;;;;;;5.67;5.17;;;5.70;57.30;;;;;;4881057;29;20437;-83
2021/01/15 01:06:53;;;;;;;6.17;4.50;;;5.60;56.80;;;;;;4880537;29;20487;-83
2021/01/15 01:09:21;;;;;;;5.33;4.83;;;5.60;57.20;;;;;;4880858;29;20939;-84
2021/01/15 01:11:48;;;;;;;5.67;4.93;;;5.60;57.30;;;;;;4880411;29;20468;-83
2021/01/15 01:50:25;;;;;;;5.97;3.90;;;5.20;56.60;;;;;;5031231;23;20526;-85
2021/01/15 02:00:23;;;;;;;5.07;3.40;;;5.20;56.90;;;;;;4765315;30;20591;-84
2021/01/15 03:45:47;;;;;;;3.50;3.13;;;4.90;55.30;;;;;;4947981;29;20953;-88
2021/01/15 03:51:37;;;;;;;5.23;4.73;;;4.90;55.10;;;;;;4839898;29;20988;-82
2021/01/15 03:54:04;;;;;;;3.27;2.97;;;4.90;55.20;;;;;;4935163;29;20474;-81
2021/01/15 03:56:31;;;;;;;3.50;3.17;;;4.90;55.10;;;;;;4954603;29;20853;-81
2021/01/15 03:58:58;;;;;;;3.70;3.37;;;4.90;55.00;;;;;;4953662;29;20446;-83
2021/01/15 04:01:25;;;;;;;7.07;3.37;;;4.90;55.00;;;;;;4952095;29;20450;-81
2021/01/15 04:04:22;;;;;;;3.30;3.00;;;5.00;55.10;;;;;;4954351;29;20964;-87
2021/01/15 04:06:49;;;;;;;3.77;3.37;;;5.00;54.80;;;;;;4915993;29;20482;-85
2021/01/15 04:09:54;;;;;;;5.20;3.10;;;4.90;54.80;;;;;;4921850;29;20589;-86
2021/01/15 04:12:21;;;;;;;7.83;3.70;;;4.90;54.70;;;;;;4934458;29;20482;-83
2021/01/15 04:14:47;;;;;;;5.40;4.17;;;4.90;54.90;;;;;;4942918;29;20846;-84
2021/01/15 04:17:15;;;;;;;3.40;3.10;;;4.90;55.00;;;;;;4954155;29;20799;-83
2021/01/15 04:19:44;;;;;;;6.80;4.10;;;4.90;55.10;;;;;;4952021;29;20463;-83
2021/01/15 04:22:33;;;;;;;3.93;3.40;;;4.90;55.00;;;;;;4952345;29;20459;-85
2021/01/15 04:25:02;;;;;;;7.90;3.53;;;4.90;54.80;;;;;;4944507;29;20928;-84
2021/01/15 04:27:32;;;;;;;5.53;4.47;;;4.90;54.90;;;;;;4935415;29;20535;-84
2021/01/15 04:30:03;;;;;;;5.07;3.67;;;4.90;54.90;;;;;;4947269;29;20460;-84
2021/01/15 04:32:34;;;;;;;3.50;3.20;;;4.90;54.80;;;;;;4935162;29;20467;-84
2021/01/15 04:35:07;;;;;;;7.80;3.53;;;4.90;54.80;;;;;;4956089;28;20564;-84
2021/01/15 04:37:39;;;;;;;4.40;3.97;;;4.80;54.70;;;;;;4956540;29;20466;-84
2021/01/15 04:43:27;;;;;;;5.33;4.00;;;4.80;55.10;;;;;;4924546;28;20486;-82
2021/01/15 04:46:07;;;;;;;4.30;3.63;;;4.80;54.90;;;;;;4937995;29;20458;-85
2021/01/15 04:49:01;;;;;;;4.77;3.23;;;4.80;54.90;;;;;;4942929;29;20548;-86
2021/01/15 04:51:28;;;;;;;4.40;4.00;;;4.80;54.80;;;;;;4943992;29;20462;-82
2021/01/15 04:54:00;;;;;;;4.80;3.60;;;4.80;54.70;;;;;;4946941;29;20457;-82
2021/01/15 05:26:27;;;;;;;4.70;4.30;;;4.60;55.30;;;;;;5402161;23;20543;-81
2021/01/15 05:28:54;;;;;;;4.50;4.10;;;4.60;55.30;;;;;;4936530;29;20492;-81
2021/01/15 05:35:07;;;;;;;4.50;4.10;;;4.60;55.30;;;;;;4938965;29;20467;-87
2021/01/15 08:46:06;;;;;;;;;;;;;;;;;;;;;
2021/01/15 09:12:28;;;;;;;8.50;7.60;;;4.80;54.50;;;;;;4760444;29;20553;-81
2021/01/15 09:14:55;;;;;;;13.83;7.10;;;4.80;54.60;;;;;;4831141;29;20471;-85
2021/01/15 09:23:27;;;;;;;11.23;7.90;;;4.90;54.60;;;;;;4886368;29;20441;-82
2021/01/15 09:25:53;;;;;;;10.23;9.13;;;4.90;54.20;;;;;;4902632;29;20464;-81
2021/01/15 09:28:21;;;;;;;11.00;8.03;;;5.00;54.10;;;;;;4903386;29;20484;-83
2021/01/15 09:30:47;;;;;;;9.53;8.60;;;5.00;54.20;;;;;;4892750;29;21036;-83
2021/01/15 09:33:26;;;;;;;10.33;9.23;;;5.00;53.80;;;;;;4899843;29;20469;-85
2021/01/15 09:35:53;;;;;;;10.37;8.20;;;5.10;53.80;;;;;;4904165;29;20889;-83
2021/01/15 09:38:19;;;;;;;9.73;8.23;;;5.10;53.70;;;;;;4903453;29;20471;-83
2021/01/15 09:40:46;;;;;;;16.30;7.97;;;5.20;53.70;;;;;;4901242;29;20496;-82
2021/01/15 09:43:14;;;;;;;15.20;9.30;;;5.30;53.80;;;;;;4908191;29;20462;-84
2021/01/15 09:45:42;;;;;;;12.20;8.73;;;5.30;53.80;;;;;;4905468;29;20454;-83
2021/01/15 09:48:10;;;;;;;13.90;9.80;;;5.40;53.80;;;;;;4904605;29;20492;-86
2021/01/15 09:50:36;;;;;;;11.70;8.77;;;5.40;53.60;;;;;;4911699;29;20523;-84
2021/01/15 09:53:03;;;;;;;10.20;9.20;;;5.50;53.60;;;;;;4906075;29;20530;-83
2021/01/15 09:55:32;;;;;;;11.13;8.10;;;5.60;53.60;;;;;;4904001;29;20465;-83
2021/01/15 09:58:02;;;;;;;10.13;8.43;;;5.70;53.60;;;;;;4911843;29;20501;-83
2021/01/15 10:00:30;;;;;;;12.67;8.70;;;5.80;53.60;;;;;;4902247;29;20463;-83
2021/01/15 10:02:57;;;;;;;9.87;8.20;;;5.80;53.00;;;;;;4911263;29;20458;-82
2021/01/15 10:05:24;;;;;;;12.67;9.00;;;5.80;52.50;;;;;;4910706;29;20446;-81
2021/01/15 10:07:50;;;;;;;9.63;7.70;;;5.80;52.10;;;;;;4912636;29;20864;-83
2021/01/15 10:10:17;;;;;;;10.47;7.90;;;5.80;52.00;;;;;;4898494;29;20451;-82
2021/01/15 10:13:06;;;;;;;11.93;9.50;;;5.80;52.10;;;;;;4904986;29;20459;-85
2021/01/15 10:15:35;;;;;;;8.40;7.20;;;6.00;52.10;;;;;;4889625;29;20476;-84
2021/01/15 10:18:02;;;;;;;10.80;8.63;;;6.00;51.90;;;;;;4898100;29;20823;-80
2021/01/15 10:20:29;;;;;;;12.70;7.97;;;6.20;52.10;;;;;;4906370;29;20454;-82
2021/01/15 10:22:55;;;;;;;21.60;8.57;;;6.30;51.80;;;;;;4907520;29;20452;-83
2021/01/15 10:25:24;;;;;;;10.20;7.10;;;6.40;51.90;;;;;;4910061;29;20508;-83
2021/01/15 10:27:51;;;;;;;13.00;7.80;;;6.40;51.50;;;;;;4893781;29;20520;-83
2021/01/15 10:30:18;;;;;;;14.47;8.57;;;6.60;51.50;;;;;;4906301;29;20450;-83
2021/01/15 10:32:48;;;;;;;12.80;8.13;;;6.70;51.40;;;;;;4898322;29;20470;-80
2021/01/15 10:35:24;;;;;;;11.70;9.40;;;6.80;50.90;;;;;;4915130;29;20465;-81
2021/01/15 10:38:02;;;;;;;10.83;9.33;;;7.00;51.00;;;;;;4898261;29;20524;-82
2021/01/15 10:40:28;;;;;;;10.17;9.17;;;7.20;51.00;;;;;;4910712;29;20510;-83
2021/01/15 10:42:55;;;;;;;14.00;9.50;;;7.40;50.00;;;;;;4914372;29;20795;-82
2021/01/15 10:45:21;;;;;;;14.87;9.53;;;7.70;49.80;;;;;;4899952;29;20818;-82
2021/01/15 10:47:50;;;;;;;9.97;8.60;;;8.00;48.80;;;;;;4907127;29;20490;-82
2021/01/15 10:50:20;;;;;;;13.87;9.53;;;8.40;48.40;;;;;;4898829;29;21035;-82
2021/01/15 10:52:54;;;;;;;19.27;10.43;;;8.70;47.60;;;;;;4903313;29;20818;-83
2021/01/15 10:55:21;;;;;;;13.60;10.23;;;9.20;47.20;;;;;;4890769;29;20462;-83
2021/01/15 10:58:19;;;;;;;14.10;10.57;;;9.60;46.20;;;;;;4914761;29;20446;-85
2021/01/15 11:00:48;;;;;;;10.80;9.70;;;10.20;44.90;;;;;;4865393;29;20533;-83
2021/01/15 11:03:51;;;;;;;;;;;;;;;;;;;;;
2021/01/15 11:06:21;;;;;;;10.70;9.60;;;11.20;42.80;;;;;;4894023;29;20454;-83
2021/01/15 11:08:49;;;;;;;11.07;9.97;;;11.80;41.70;;;;;;4900113;29;20917;-83
2021/01/15 11:11:43;;;;;;;10.97;9.83;;;12.30;40.40;;;;;;4896119;29;20444;-85
2021/01/15 11:14:10;;;;;;;13.57;10.83;;;12.80;39.40;;;;;;4900096;29;20523;-81
2021/01/15 11:16:39;;;;;;;14.60;10.40;;;13.30;39.00;;;;;;4899087;29;20456;-81
2021/01/15 11:19:08;;;;;;;14.23;10.70;;;13.80;38.00;;;;;;4893297;29;20538;-81
2021/01/15 11:21:47;;;;;;;12.30;11.10;;;14.50;37.20;;;;;;4897884;29;20555;-81
2021/01/15 11:24:16;;;;;;;10.50;9.50;;;15.30;36.50;;;;;;4886761;29;20452;-81
2021/01/15 11:26:43;;;;;;;10.83;9.80;;;16.00;34.10;;;;;;4888331;29;20447;-81
2021/01/15 11:29:13;;;;;;;11.03;9.50;;;16.50;32.70;;;;;;4882092;29;21000;-83
2021/01/15 11:31:40;;;;;;;11.00;9.90;;;17.00;31.90;;;;;;4905158;29;20455;-83
2021/01/15 11:34:07;;;;;;;14.60;10.70;;;17.80;31.30;;;;;;4913581;29;20454;-83
2021/01/15 11:36:41;;;;;;;11.53;10.43;;;18.70;30.30;;;;;;4895344;29;20535;-86
2021/01/15 11:39:36;;;;;;;13.33;9.77;;;19.70;29.50;;;;;;4896866;29;21059;-83
2021/01/15 11:42:09;;;;;;;10.53;9.40;;;20.70;28.50;;;;;;4897174;29;20487;-83
2021/01/15 11:44:40;;;;;;;9.37;8.60;;;21.60;27.10;;;;;;4908854;29;20945;-82
2021/01/15 11:47:07;;;;;;;10.40;9.43;;;22.40;26.10;;;;;;4900760;29;20456;-81
2021/01/15 11:49:45;;;;;;;11.70;10.50;;;23.10;25.80;;;;;;4901765;29;20464;-85
2021/01/15 11:52:21;;;;;;;10.70;9.80;;;22.50;24.30;;;;;;4896279;29;20464;-80
2021/01/15 11:54:51;;;;;;;13.80;10.70;;;19.80;25.80;;;;;;4905138;29;20511;-81
2021/01/15 11:57:19;;;;;;;11.50;10.23;;;17.10;27.30;;;;;;4901360;29;20459;-82
2021/01/15 11:59:48;;;;;;;11.73;10.53;;;15.00;29.20;;;;;;4900529;29;20458;-83
2021/01/15 12:02:16;;;;;;;13.17;10.83;;;13.40;31.40;;;;;;4894392;29;20455;-83
2021/01/15 12:04:42;;;;;;;16.80;12.40;;;12.20;33.20;;;;;;4915818;29;20479;-81
2021/01/15 12:07:10;;;;;;;11.73;10.20;;;11.40;34.90;;;;;;4914671;29;20507;-81
2021/01/15 12:09:42;;;;;;;10.67;9.53;;;10.80;36.30;;;;;;4898590;29;20463;-81
2021/01/15 12:12:22;;;;;;;14.20;9.87;;;10.40;37.30;;;;;;4915912;29;20469;-80
2021/01/15 12:14:49;;;;;;;10.03;9.03;;;10.00;38.20;;;;;;4907363;29;20964;-78
2021/01/15 12:17:15;;;;;;;11.23;10.00;;;9.80;39.80;;;;;;4900842;29;20529;-78
2021/01/15 12:19:42;;;;;;;10.33;9.17;;;9.50;40.10;;;;;;4908353;29;21005;-79
2021/01/15 12:22:08;;;;;;;9.20;8.30;;;9.30;40.60;;;;;;4888119;29;20478;-79
2021/01/15 12:24:35;;;;;;;11.33;9.13;;;9.10;41.00;;;;;;4892056;29;21006;-78
2021/01/15 12:27:03;;;;;;;25.80;10.30;;;9.00;41.20;;;;;;4907098;29;20464;-79
2021/01/15 12:29:34;;;;;;;9.60;8.67;;;8.90;41.40;;;;;;4896087;29;20464;-79
2021/01/15 12:32:02;;;;;;;9.37;8.40;;;8.80;41.70;;;;;;4901085;29;20461;-79
2021/01/15 12:34:29;;;;;;;9.03;8.13;;;8.60;41.70;;;;;;4900584;29;20470;-79
2021/01/15 12:36:58;;;;;;;10.23;8.57;;;8.50;42.20;;;;;;4900387;29;20940;-79
2021/01/15 12:39:25;;;;;;;11.50;9.03;;;8.40;42.60;;;;;;4900256;29;20491;-79
2021/01/15 12:41:52;;;;;;;11.40;10.30;;;8.40;42.90;;;;;;4900378;29;20455;-80
2021/01/15 12:44:18;;;;;;;8.47;7.67;;;8.40;43.30;;;;;;4900282;29;20453;-79
2021/01/15 12:46:46;;;;;;;11.13;9.70;;;8.40;43.40;;;;;;4900095;29;20538;-79
2021/01/15 12:49:22;;;;;;;9.00;7.80;;;8.40;43.30;;;;;;4900525;29;20501;-81
2021/01/15 12:51:51;;;;;;;12.73;8.20;;;8.40;43.40;;;;;;4898795;29;20959;-79
2021/01/15 12:54:20;;;;;;;15.77;8.50;;;8.30;43.50;;;;;;4899941;29;20505;-80
2021/01/15 12:56:47;;;;;;;10.70;9.03;;;8.30;43.60;;;;;;4900379;29;20838;-79
2021/01/15 12:59:13;;;;;;;9.00;7.90;;;8.20;43.50;;;;;;4900155;29;20514;-79
2021/01/15 13:01:41;;;;;;;11.23;6.80;;;8.10;43.50;;;;;;4899919;29;20975;-81
2021/01/15 13:04:12;;;;;;;8.70;7.60;;;8.00;43.80;;;;;;4900088;29;20810;-79
2021/01/15 13:06:39;;;;;;;9.77;8.70;;;7.90;43.90;;;;;;4898660;29;20851;-80
2021/01/15 13:09:15;;;;;;;9.60;7.67;;;7.90;44.20;;;;;;4899630;29;20849;-80
2021/01/15 13:11:41;;;;;;;8.67;7.90;;;7.80;44.40;;;;;;4899862;29;20453;-80
2021/01/15 13:14:08;;;;;;;14.00;9.23;;;7.80;44.80;;;;;;4899751;29;20513;-80
2021/01/15 13:16:37;;;;;;;11.83;9.87;;;7.80;45.10;;;;;;4899967;29;20444;-79
2021/01/15 13:19:06;;;;;;;12.27;8.70;;;7.80;45.20;;;;;;4897827;29;20509;-80
2021/01/15 13:21:33;;;;;;;13.67;9.60;;;7.80;45.40;;;;;;4899624;29;20535;-80
2021/01/15 13:24:00;;;;;;;14.40;10.77;;;7.80;45.70;;;;;;4899565;29;20449;-80
2021/01/15 13:26:26;;;;;;;14.17;9.83;;;7.80;46.20;;;;;;4899563;29;20815;-80
2021/01/15 13:28:54;;;;;;;12.33;9.67;;;7.80;46.50;;;;;;4899590;29;20492;-80
2021/01/15 13:31:21;;;;;;;12.70;10.40;;;7.80;46.60;;;;;;4899483;29;20727;-79
2021/01/15 13:33:47;;;;;;;13.90;11.00;;;7.70;46.70;;;;;;4899300;29;20816;-79
2021/01/15 13:36:14;;;;;;;11.17;10.03;;;7.70;46.90;;;;;;4899572;29;20498;-78
2021/01/15 13:38:42;;;;;;;16.40;12.87;;;7.70;47.10;;;;;;4899447;29;20543;-79
2021/01/15 13:41:09;;;;;;;12.43;10.03;;;7.70;47.30;;;;;;4899140;29;20468;-80
2021/01/15 13:43:38;;;;;;;19.80;10.53;;;7.70;47.70;;;;;;4899210;29;20464;-79
2021/01/15 13:46:08;;;;;;;17.50;9.60;;;7.60;47.90;;;;;;4897926;29;20471;-79
2021/01/15 13:48:37;;;;;;;13.00;11.10;;;7.60;48.40;;;;;;4898909;29;20499;-80
2021/01/15 13:51:12;;;;;;;14.03;10.07;;;7.60;48.70;;;;;;4899050;29;20965;-81
2021/01/15 13:53:39;;;;;;;10.90;9.83;;;7.60;48.70;;;;;;4898992;29;20491;-80
2021/01/15 13:56:10;;;;;;;15.63;11.50;;;7.60;48.70;;;;;;4898638;29;20449;-78
2021/01/15 13:58:41;;;;;;;11.40;10.23;;;7.70;48.80;;;;;;4898959;29;20531;-79
2021/01/15 14:01:07;;;;;;;16.17;11.23;;;7.60;48.80;;;;;;4898899;29;20468;-79
2021/01/15 14:03:34;;;;;;;11.93;10.60;;;7.60;49.00;;;;;;4898601;29;20495;-80
2021/01/15 14:06:00;;;;;;;13.13;11.30;;;7.60;49.20;;;;;;4898584;29;20525;-81
2021/01/15 14:08:27;;;;;;;13.57;10.47;;;7.50;49.30;;;;;;4898119;29;20497;-79
2021/01/15 14:11:27;;;;;;;15.80;10.90;;;7.50;49.40;;;;;;4896969;29;20967;-81
2021/01/15 14:13:53;;;;;;;13.00;11.50;;;7.50;49.70;;;;;;4899371;29;20560;-80
2021/01/15 14:16:30;;;;;;;15.60;11.07;;;7.50;50.00;;;;;;4898702;29;20456;-80
2021/01/15 14:18:57;;;;;;;14.83;11.60;;;7.50;50.60;;;;;;4898764;29;20873;-81
2021/01/15 14:21:24;;;;;;;13.50;11.40;;;7.50;50.00;;;;;;4898574;29;20457;-80
2021/01/15 14:23:51;;;;;;;11.93;10.27;;;7.50;50.20;;;;;;4898442;29;20952;-78
2021/01/15 14:26:18;;;;;;;14.83;11.07;;;7.50;50.30;;;;;;4898256;29;20449;-80
2021/01/15 14:28:56;;;;;;;19.40;12.07;;;7.40;50.20;;;;;;4898465;29;20515;-79
2021/01/15 14:31:23;;;;;;;14.00;9.50;;;7.40;50.30;;;;;;4898576;29;20449;-80
2021/01/15 14:33:50;;;;;;;18.27;11.17;;;7.40;50.90;;;;;;4898131;29;20460;-79
2021/01/15 14:36:17;;;;;;;15.47;10.90;;;7.50;50.40;;;;;;4898298;29;20456;-80
2021/01/15 14:38:43;;;;;;;12.03;10.70;;;7.40;50.30;;;;;;4896374;29;20468;-80
2021/01/15 14:41:10;;;;;;;13.60;11.13;;;7.40;50.30;;;;;;4897935;29;20461;-80
2021/01/15 14:43:42;;;;;;;12.07;10.00;;;7.40;50.50;;;;;;4897730;29;20574;-80
2021/01/15 14:46:08;;;;;;;15.90;11.23;;;7.40;50.70;;;;;;4898076;29;20445;-79
2021/01/15 14:48:38;;;;;;;13.03;10.30;;;7.40;50.70;;;;;;4897775;29;20505;-79
2021/01/15 14:51:05;;;;;;;11.47;9.73;;;7.40;50.40;;;;;;4897757;29;20455;-80
2021/01/15 14:53:32;;;;;;;13.13;9.63;;;7.40;50.30;;;;;;4897961;29;20514;-80
2021/01/15 14:55:58;;;;;;;13.00;9.60;;;7.40;50.30;;;;;;4897879;29;20529;-80
2021/01/15 14:58:28;;;;;;;19.27;9.97;;;7.30;50.20;;;;;;4897937;29;20465;-80
2021/01/15 15:00:56;;;;;;;13.20;9.97;;;7.30;50.10;;;;;;4897722;29;20453;-79
2021/01/15 15:03:22;;;;;;;10.37;8.40;;;7.30;49.90;;;;;;4896212;29;20470;-79
2021/01/15 15:05:55;;;;;;;10.97;9.57;;;7.20;49.90;;;;;;4897940;29;20784;-80
2021/01/15 15:08:30;;;;;;;14.30;9.20;;;7.20;49.90;;;;;;4897681;29;20494;-81
2021/01/15 15:10:57;;;;;;;11.77;8.67;;;7.10;50.00;;;;;;4897535;29;20448;-82
2021/01/15 15:13:39;;;;;;;11.37;8.70;;;7.10;50.10;;;;;;4897625;29;20457;-80
2021/01/15 15:16:16;;;;;;;14.03;9.30;;;7.00;50.10;;;;;;4895957;29;20464;-80
2021/01/15 15:18:55;;;;;;;10.10;8.50;;;7.00;50.40;;;;;;4897373;29;20451;-81
2021/01/15 15:21:27;;;;;;;10.57;8.70;;;7.00;50.50;;;;;;4897556;29;20941;-81
2021/01/15 15:23:58;;;;;;;12.40;9.03;;;7.00;50.50;;;;;;4897141;29;20465;-82
2021/01/15 15:26:33;;;;;;;13.80;9.80;;;7.00;50.60;;;;;;4897767;29;20803;-80
2021/01/15 15:29:19;;;;;;;16.10;9.20;;;7.00;50.80;;;;;;4894893;29;20535;-81
2021/01/15 15:31:47;;;;;;;11.37;9.43;;;6.90;51.00;;;;;;4897655;29;20453;-80
2021/01/15 15:34:14;;;;;;;12.47;9.60;;;6.90;51.20;;;;;;4897376;29;20451;-79
2021/01/15 15:36:41;;;;;;;13.30;9.57;;;6.80;51.10;;;;;;4897516;29;20519;-79
2021/01/15 15:39:08;;;;;;;9.30;8.40;;;6.80;51.10;;;;;;4897082;29;20467;-79
2021/01/15 15:41:49;;;;;;;9.53;8.50;;;6.80;51.30;;;;;;4897205;29;20503;-80
2021/01/15 15:44:16;;;;;;;9.47;8.43;;;6.70;51.40;;;;;;4897025;29;20485;-80
2021/01/15 15:46:44;;;;;;;12.03;8.70;;;6.70;51.70;;;;;;4897344;29;20477;-79
2021/01/15 15:49:11;;;;;;;13.03;9.37;;;6.60;51.80;;;;;;4897067;29;20996;-80
2021/01/15 15:51:48;;;;;;;14.90;9.37;;;6.50;52.00;;;;;;4896989;29;20594;-81
2021/01/15 15:54:18;;;;;;;11.80;9.70;;;6.50;52.20;;;;;;4897054;29;20822;-80
2021/01/15 15:56:59;;;;;;;10.50;9.43;;;6.50;52.30;;;;;;4895578;29;20447;-79
2021/01/15 15:59:28;;;;;;;11.40;8.80;;;6.40;52.50;;;;;;4897176;29;20788;-80
2021/01/15 16:02:04;;;;;;;12.57;9.50;;;6.30;52.70;;;;;;4897222;29;20454;-81
2021/01/15 16:04:32;;;;;;;12.00;8.27;;;6.30;52.80;;;;;;4897180;29;20538;-80
2021/01/15 16:06:59;;;;;;;16.23;7.97;;;6.20;53.10;;;;;;4897261;29;20455;-80
2021/01/15 16:09:25;;;;;;;11.77;8.10;;;6.20;53.30;;;;;;4897196;29;20566;-80
2021/01/15 16:11:52;;;;;;;10.87;9.60;;;6.10;53.40;;;;;;4896920;29;20447;-80
2021/01/15 16:14:19;;;;;;;10.00;8.40;;;6.10;53.60;;;;;;4897012;29;20452;-80
2021/01/15 16:16:49;;;;;;;8.73;7.87;;;6.20;53.70;;;;;;4897242;29;20806;-79
2021/01/15 16:19:16;;;;;;;10.87;9.60;;;6.20;53.90;;;;;;4897295;29;20875;-79
2021/01/15 16:21:53;;;;;;;10.23;8.37;;;6.20;53.80;;;;;;4895775;29;20456;-81
2021/01/15 16:24:20;;;;;;;12.67;9.00;;;6.20;54.00;;;;;;4897267;29;20785;-79
2021/01/15 16:26:51;;;;;;;10.27;8.57;;;6.20;54.00;;;;;;4896865;29;20983;-79
2021/01/15 16:29:17;;;;;;;12.37;8.40;;;6.20;54.10;;;;;;4896571;29;20505;-79
2021/01/15 16:31:44;;;;;;;12.73;9.53;;;6.30;54.30;;;;;;4900447;29;20446;-79
2021/01/15 16:34:12;;;;;;;9.80;8.50;;;6.30;54.30;;;;;;4900563;29;21012;-80
2021/01/15 16:36:57;;;;;;;13.43;9.13;;;6.30;54.30;;;;;;4898974;29;20454;-80
2021/01/15 16:39:24;;;;;;;12.37;7.90;;;6.30;54.30;;;;;;4900276;29;20876;-78
2021/01/15 16:41:52;;;;;;;14.10;9.30;;;6.40;54.30;;;;;;4900097;29;20453;-80
2021/01/15 16:47:04;;;;;;;9.80;8.40;;;6.40;54.30;;;;;;4898008;29;20531;-79
2021/01/15 16:49:33;;;;;;;12.30;8.27;;;6.40;54.30;;;;;;4898415;29;20491;-80
2021/01/15 16:52:01;;;;;;;10.70;9.10;;;6.40;54.20;;;;;;4900053;29;20455;-80
2021/01/15 16:54:31;;;;;;;14.43;10.07;;;6.40;54.20;;;;;;4900315;29;20459;-80
2021/01/15 16:56:57;;;;;;;9.50;8.50;;;6.40;54.30;;;;;;4900012;29;20459;-81
2021/01/15 16:59:27;;;;;;;11.83;9.63;;;6.40;54.40;;;;;;4900088;29;20582;-81
2021/01/15 17:01:58;;;;;;;11.10;9.23;;;6.50;54.40;;;;;;4899919;29;20452;-83
2021/01/15 17:04:27;;;;;;;10.73;8.13;;;6.50;54.30;;;;;;4900002;29;20466;-80
2021/01/15 17:06:55;;;;;;;12.70;9.20;;;6.50;54.40;;;;;;4899846;29;20445;-81
2021/01/15 17:09:23;;;;;;;17.97;9.97;;;6.50;54.40;;;;;;4899934;29;20495;-79
2021/01/15 17:11:50;;;;;;;12.57;9.10;;;6.60;54.50;;;;;;4899791;29;20460;-80
2021/01/15 17:14:40;;;;;;;12.40;8.93;;;6.60;54.30;;;;;;4900826;29;20491;-83
2021/01/15 17:17:07;;;;;;;11.63;9.90;;;6.70;54.30;;;;;;4917498;29;20460;-79
2021/01/15 17:19:33;;;;;;;10.07;8.00;;;6.70;54.40;;;;;;4914937;29;20460;-81
2021/01/15 17:22:04;;;;;;;12.30;8.17;;;6.70;54.40;;;;;;4905647;29;21012;-81
2021/01/15 17:24:34;;;;;;;10.67;8.40;;;6.70;54.30;;;;;;4899507;29;20506;-80
2021/01/15 17:27:01;;;;;;;11.73;8.00;;;6.70;54.20;;;;;;4903230;29;20549;-79
2021/01/15 17:29:32;;;;;;;12.80;8.30;;;6.80;54.20;;;;;;4913133;29;20590;-80
2021/01/15 17:32:11;;;;;;;10.10;8.70;;;6.80;54.00;;;;;;4902510;29;20538;-82
2021/01/15 17:34:37;;;;;;;10.03;8.20;;;6.90;54.00;;;;;;4911637;29;20457;-82
2021/01/15 17:37:04;;;;;;;14.93;8.57;;;6.90;54.10;;;;;;4899204;29;20512;-81
2021/01/15 17:39:32;;;;;;;9.70;8.30;;;6.90;54.20;;;;;;4899819;29;20487;-82
2021/01/15 17:41:59;;;;;;;15.17;8.70;;;6.90;54.00;;;;;;4912739;29;20468;-83
2021/01/15 17:44:28;;;;;;;8.90;8.00;;;6.90;53.90;;;;;;4909856;29;20553;-82
2021/01/15 17:47:04;;;;;;;8.53;7.73;;;7.00;54.10;;;;;;4907149;29;20447;-83
2021/01/15 17:49:32;;;;;;;10.27;8.00;;;6.90;54.00;;;;;;4900741;29;20488;-82
2021/01/15 17:52:01;;;;;;;10.90;8.37;;;6.90;54.00;;;;;;4898781;29;20537;-82
2021/01/15 17:54:31;;;;;;;11.90;7.40;;;6.90;54.00;;;;;;4899066;29;20448;-83
2021/01/15 17:57:01;;;;;;;8.03;7.23;;;6.90;54.10;;;;;;4910314;29;20460;-82
2021/01/15 17:59:28;;;;;;;8.13;6.93;;;6.90;54.30;;;;;;4899465;29;20546;-81
2021/01/15 18:01:55;;;;;;;11.10;6.53;;;7.00;54.20;;;;;;4902551;29;20461;-82
2021/01/15 18:04:37;;;;;;;10.90;7.20;;;7.00;54.20;;;;;;4900777;29;20457;-85
2021/01/15 18:07:07;;;;;;;9.13;7.73;;;7.00;54.10;;;;;;4892929;29;20946;-81
2021/01/15 18:09:59;;;;;;;8.27;7.40;;;7.00;54.20;;;;;;4895072;29;20491;-86
2021/01/15 18:19:45;;;;;;;9.90;6.33;;;6.90;54.40;;;;;;4902847;29;20470;-87
2021/01/15 18:26:36;;;;;;;7.97;6.43;;;6.90;54.80;;;;;;4897308;29;20440;-86
2021/01/15 19:07:49;;;;;;;7.83;7.03;;;6.30;56.50;;;;;;4863619;29;20467;-83
2021/01/15 19:10:40;;;;;;;8.60;7.77;;;6.30;56.60;;;;;;4886891;29;20994;-85
2021/01/15 19:29:58;;;;;;;7.70;6.77;;;6.30;56.60;;;;;;4825085;29;20491;-84
2021/01/15 19:32:30;;;;;;;10.53;7.50;;;6.30;56.60;;;;;;4829451;29;20465;-82
2021/01/15 19:34:59;;;;;;;9.53;7.90;;;6.40;56.80;;;;;;4837842;29;20534;-83
2021/01/15 19:37:26;;;;;;;9.33;6.43;;;6.40;56.70;;;;;;4861368;29;20811;-81
2021/01/15 19:40:23;;;;;;;8.50;7.60;;;6.40;56.70;;;;;;4890667;29;20463;-84
2021/01/15 19:42:52;;;;;;;9.93;7.17;;;6.40;56.60;;;;;;4902593;29;20455;-81
2021/01/15 19:45:19;;;;;;;7.93;7.17;;;6.40;56.60;;;;;;4898939;29;20478;-82
2021/01/15 19:47:46;;;;;;;7.93;6.80;;;6.40;56.80;;;;;;4902351;29;20457;-80
2021/01/15 19:50:21;;;;;;;8.30;7.27;;;6.40;56.60;;;;;;4905842;29;20466;-80
2021/01/15 19:52:49;;;;;;;8.10;6.53;;;6.40;56.70;;;;;;4897608;29;20455;-82
2021/01/15 19:55:17;;;;;;;8.80;7.13;;;6.50;56.70;;;;;;4896899;29;20865;-82
2021/01/15 19:57:49;;;;;;;7.70;6.90;;;6.50;56.80;;;;;;4898978;29;20795;-82
2021/01/15 20:00:19;;;;;;;9.87;7.20;;;6.50;56.80;;;;;;4913812;29;20490;-82
2021/01/15 20:02:51;;;;;;;9.07;7.50;;;6.50;56.90;;;;;;4907877;29;20498;-83
2021/01/15 20:05:18;;;;;;;8.93;7.73;;;6.50;57.20;;;;;;4902927;29;20461;-83
2021/01/15 20:07:45;;;;;;;8.70;7.90;;;6.50;57.50;;;;;;4910608;29;20476;-83
2021/01/15 20:10:12;;;;;;;8.20;7.20;;;6.50;57.40;;;;;;4904018;29;20466;-83
2021/01/15 20:12:39;;;;;;;8.03;7.23;;;6.60;57.60;;;;;;4913626;29;20576;-82
2021/01/15 20:18:24;;;;;;;8.57;7.57;;;6.50;57.50;;;;;;4897993;29;20544;-84
2021/01/15 20:21:24;;;;;;;10.17;9.17;;;6.50;57.60;;;;;;4900534;29;20448;-85
2021/01/15 20:31:29;;;;;;;9.80;8.80;;;6.50;57.30;;;;;;4769799;30;20864;-86
2021/01/15 20:51:24;;;;;;;10.33;9.07;;;6.50;57.10;;;;;;4776828;30;20452;-87
2021/01/15 20:53:51;;;;;;;10.80;8.77;;;6.50;56.90;;;;;;4802170;29;20536;-83
2021/01/15 20:56:22;;;;;;;9.07;7.73;;;6.60;57.00;;;;;;4863536;29;20993;-83
2021/01/15 21:02:22;;;;;;;10.57;8.27;;;6.50;57.60;;;;;;4883162;29;20413;-83
2021/01/15 21:11:50;;;;;;;10.23;9.17;;;6.50;57.60;;;;;;4803608;29;20445;-83
2021/01/15 21:14:22;;;;;;;11.67;9.47;;;6.40;57.80;;;;;;4874495;29;20826;-83
2021/01/15 21:16:49;;;;;;;12.67;9.07;;;6.40;57.90;;;;;;4897239;29;20493;-84
2021/01/15 21:19:17;;;;;;;14.10;10.33;;;6.40;57.90;;;;;;4897819;29;20479;-84
2021/01/15 21:21:44;;;;;;;11.87;10.17;;;6.40;57.80;;;;;;4897879;29;20483;-84
2021/01/15 21:41:33;;;;;;;14.50;11.00;;;6.40;58.10;;;;;;4862548;29;20471;-86
2021/01/15 21:44:18;;;;;;;11.63;10.43;;;6.40;58.50;;;;;;4894045;29;20461;-84
2021/01/15 21:47:00;;;;;;;14.67;10.50;;;6.40;58.30;;;;;;4878684;29;20451;-83
2021/01/15 21:49:38;;;;;;;14.23;12.40;;;6.40;58.50;;;;;;4902115;29;20545;-82
2021/01/15 21:52:31;;;;;;;13.20;10.43;;;6.40;58.60;;;;;;4883936;29;20458;-83
2021/01/15 21:54:57;;;;;;;11.77;10.60;;;6.40;58.50;;;;;;4898253;29;20471;-84
2021/01/15 21:57:24;;;;;;;13.97;10.73;;;6.30;58.60;;;;;;4898813;29;20490;-84
2021/01/15 22:00:00;;;;;;;14.03;11.07;;;6.30;58.50;;;;;;4899259;29;20461;-84
2021/01/15 22:02:31;;;;;;;12.53;11.03;;;6.30;58.50;;;;;;4898843;29;20778;-83
2021/01/15 22:35:18;;;;;;;16.23;12.07;;;6.20;58.80;;;;;;4899121;29;20951;-82
2021/01/15 22:59:02;;;;;;;13.37;10.50;;;6.20;59.00;;;;;;4892241;29;20485;-84
2021/01/15 23:19:48;;;;;;;12.03;10.30;;;6.20;58.60;;;;;;4833813;29;20456;-85
2021/01/15 23:23:01;;;;;;;13.87;11.87;;;6.20;58.50;;;;;;4909334;29;20459;-85
2021/01/15 23:28:54;;;;;;;13.80;9.63;;;6.10;58.70;;;;;;4881859;29;20523;-85
2021/01/15 23:41:57;;;;;;;11.97;9.63;;;6.10;59.00;;;;;;4904883;29;20462;-84
2021/01/15 23:48:27;;;;;;;13.70;11.50;;;6.20;58.90;;;;;;4876091;29;20780;-84
2021/01/15 23:54:21;;;;;;;12.20;10.60;;;6.20;58.50;;;;;;4818934;29;20461;-83
2021/01/15 23:57:02;;;;;;;13.70;11.30;;;6.10;58.70;;;;;;4910302;29;20471;-82
2021/01/15 23:59:36;;;;;;;13.07;9.67;;;6.10;58.90;;;;;;4892704;29;20462;-85
